Kongen — LCDE — position and weather

sailwx.info

Track history (hours):
 
Tides and Currents Weather Stations Pressure Air Temp Water Temp Dewpoint Dewpoint Depression Visibility Wind Speed Wind Dir Waves Ship Positions

Kongen

Last reported at 2018-Jan-19 03:00 UTC. Time now 2018-Jan-19 03:20 UTC.
Position N 59°52' E 010°39'.

Length 50 m; draft 3.2 m.

Type: Passenger vessel. MMSI: 258509000.

Date/timePositionNaut miles runAvg speedWind from/ knotsBaromVisibWave heightAir tempDewpointWater temp
2018-Jan-19 03:00N 59°52' E 010°39'0 0.0
2018-Jan-19 02:30N 59°52' E 010°39'0 0.0
2018-Jan-19 02:00N 59°52' E 010°39'0 0.0
2018-Jan-19 01:30N 59°52' E 010°39'0 0.0
2018-Jan-19 01:00N 59°52' E 010°39'0 0.0
2018-Jan-19 00:30N 59°52' E 010°39'0 0.0
2018-Jan-19 00:00N 59°52' E 010°39'0 0.0
2018-Jan-18 23:30N 59°52' E 010°39'3 6.4
2018-Jan-18 23:00N 59°55' E 010°44'3 6.4
2018-Jan-18 22:30N 59°52' E 010°39'3 6.4
2018-Jan-18 22:00N 59°55' E 010°44'3 6.4
2018-Jan-18 21:30N 59°52' E 010°39'3 6.2
2018-Jan-18 21:00N 59°55' E 010°44'3 6.6
2018-Jan-18 20:30N 59°52' E 010°39'3 6.3
2018-Jan-18 20:00N 59°55' E 010°44'3 6.5
2018-Jan-18 19:30N 59°52' E 010°39'3 6.4
2018-Jan-18 19:00N 59°55' E 010°44'3 6.4
2018-Jan-18 18:30N 59°52' E 010°39'3 6.2
2018-Jan-18 17:59N 59°55' E 010°44'3 6.6
2018-Jan-18 17:30N 59°52' E 010°39'3 6.4
2018-Jan-18 17:00N 59°55' E 010°44'3 6.4
2018-Jan-18 16:30N 59°52' E 010°39'3 6.4
2018-Jan-18 16:00N 59°55' E 010°44'2 3.4
2018-Jan-18 15:30N 59°54' E 010°41'1 1.4
2018-Jan-18 15:00N 59°54' E 010°42'1 1.3
2018-Jan-18 14:30N 59°53' E 010°41'1 1.3
2018-Jan-18 14:00N 59°54' E 010°42'1 2.1
2018-Jan-18 13:30N 59°55' E 010°44'3 6.4
2018-Jan-18 13:00N 59°52' E 010°39'3 6.2
2018-Jan-18 12:30N 59°55' E 010°44'3 6.5
2018-Jan-18 12:00N 59°52' E 010°39'3 6.3
2018-Jan-18 11:30N 59°55' E 010°44'0 0.0
2018-Jan-18 11:00N 59°55' E 010°44'1 1.2
2018-Jan-18 10:29N 59°54' E 010°43'0 0.0
2018-Jan-18 09:59N 59°54' E 010°43'0 0.7
2018-Jan-18 09:30N 59°54' E 010°43'3 5.5
2018-Jan-18 09:00N 59°52' E 010°39'3 6.4
2018-Jan-18 08:30N 59°55' E 010°44'3 6.4
2018-Jan-18 08:01N 59°52' E 010°39'3 6.2
2018-Jan-18 07:30N 59°55' E 010°44'3 6.2
2018-Jan-18 06:59N 59°52' E 010°39'3 6.6
2018-Jan-18 06:30N 59°55' E 010°44'3 6.5
2018-Jan-18 06:00N 59°52' E 010°39'3 5.9
2018-Jan-18 05:28N 59°55' E 010°44'3 6.9
2018-Jan-18 05:00N 59°52' E 010°39'3 6.2
2018-Jan-18 04:29N 59°55' E 010°44'3 6.6
2018-Jan-18 04:00N 59°52' E 010°39'0 0.0
2018-Jan-18 03:29N 59°52' E 010°39'0 0.0
2018-Jan-18 02:59N 59°52' E 010°39'0 0.0
2018-Jan-18 02:29N 59°52' E 010°39'0 0.0
2018-Jan-18 01:59N 59°52' E 010°39'0 0.0
2018-Jan-18 01:29N 59°52' E 010°39'0 0.0
2018-Jan-18 00:59N 59°52' E 010°39'0 0.0
2018-Jan-17 23:59N 59°52' E 010°39'0 0.0
2018-Jan-17 23:56N 59°52' E 010°39'  
2018-Jan-12 15:00N 59°54' E 010°42'1 1.1
2018-Jan-12 14:30N 59°54' E 010°41'0 0.9
2018-Jan-12 14:00N 59°54' E 010°42'1 2.3
2018-Jan-12 13:30N 59°55' E 010°44'3 6.4
2018-Jan-12 13:00N 59°52' E 010°40'3 6.2
2018-Jan-12 12:30N 59°55' E 010°44'3 6.5
2018-Jan-12 12:00N 59°52' E 010°39'3 6.2
2018-Jan-12 11:30N 59°55' E 010°44'0 0.0
2018-Jan-12 11:00N 59°55' E 010°44'0 0.0
2018-Jan-12 10:30N 59°55' E 010°44'0 0.0
2018-Jan-12 10:00N 59°55' E 010°44'0 0.0
2018-Jan-12 09:30N 59°55' E 010°44'3 6.5
2018-Jan-12 09:00N 59°52' E 010°39'3 6.2
2018-Jan-12 08:30N 59°55' E 010°44'3 6.5
2018-Jan-12 08:00N 59°52' E 010°39'3 6.2
2018-Jan-12 07:30N 59°55' E 010°44'3 6.6
2018-Jan-12 07:00N 59°52' E 010°39'3 6.3
2018-Jan-12 06:30N 59°55' E 010°44'3 6.4
2018-Jan-12 06:00N 59°52' E 010°39'3 6.2
2018-Jan-12 05:30N 59°55' E 010°44'3 6.4
2018-Jan-12 05:00N 59°52' E 010°39'3 6.3
2018-Jan-12 04:30N 59°55' E 010°44'3 6.4
2018-Jan-12 04:00N 59°52' E 010°39'0 0.0
2018-Jan-12 03:28N 59°52' E 010°39'0 0.0
2018-Jan-12 02:58N 59°52' E 010°39'0 0.0
2018-Jan-12 02:28N 59°52' E 010°39'0 0.0
2018-Jan-12 01:58N 59°52' E 010°39'0 0.0
2018-Jan-12 01:28N 59°52' E 010°39'0 0.0
2018-Jan-12 00:58N 59°52' E 010°39'0 0.0
2018-Jan-12 00:28N 59°52' E 010°39'0 0.0
2018-Jan-11 23:58N 59°52' E 010°39'0 0.0
2018-Jan-11 23:28N 59°52' E 010°39'3 6.8
2018-Jan-11 23:00N 59°55' E 010°44'3 6.4
2018-Jan-11 22:31N 59°52' E 010°39'3 6.3
2018-Jan-11 22:00N 59°55' E 010°44'3 6.4
2018-Jan-11 21:30N 59°52' E 010°39'3 6.4
2018-Jan-11 21:00N 59°55' E 010°44'3 6.3
2018-Jan-11 20:31N 59°52' E 010°39'3 6.1
2018-Jan-11 20:00N 59°55' E 010°44'3 6.6
2018-Jan-11 19:30N 59°52' E 010°39'3 6.2
2018-Jan-11 19:00N 59°55' E 010°44'3 6.5
2018-Jan-11 18:30N 59°52' E 010°39'3 6.2
2018-Jan-11 18:00N 59°55' E 010°44'3 6.5
2018-Jan-11 17:30N 59°52' E 010°39'3 6.3
2018-Jan-11 17:00N 59°55' E 010°44'3 6.5
2018-Jan-11 16:30N 59°52' E 010°39'3 6.2
2018-Jan-11 16:00N 59°55' E 010°44'2 3.5
2018-Jan-11 15:30N 59°53' E 010°41'1 1.3
2018-Jan-11 15:00N 59°54' E 010°42'0 0.9
2018-Jan-11 14:30N 59°54' E 010°42'1 1.2
2018-Jan-11 14:00N 59°54' E 010°42'1 1.9
2018-Jan-11 13:30N 59°55' E 010°44'3 6.5
2018-Jan-11 13:00N 59°52' E 010°40'3 6.1
2018-Jan-11 12:30N 59°55' E 010°44'3 6.4
2018-Jan-11 12:00N 59°52' E 010°40'3 6.1
2018-Jan-11 11:30N 59°55' E 010°44'0 0.0
2018-Jan-11 11:00N 59°55' E 010°44'1 1.1
2018-Jan-11 10:30N 59°54' E 010°43'0 0.5
2018-Jan-11 10:00N 59°54' E 010°43'0 0.4
2018-Jan-11 09:30N 59°54' E 010°43'3 5.1
2018-Jan-11 09:00N 59°52' E 010°39'3 6.2
2018-Jan-11 08:30N 59°55' E 010°44'3 6.4
2018-Jan-11 08:00N 59°52' E 010°39'3 6.2
2018-Jan-11 07:30N 59°55' E 010°44'3 6.6
2018-Jan-11 07:00N 59°52' E 010°39'3 6.3
2018-Jan-11 06:30N 59°55' E 010°44'3 6.3
2018-Jan-11 06:00N 59°52' E 010°40'3 6.3
2018-Jan-11 05:30N 59°55' E 010°44'3 6.3
2018-Jan-11 05:00N 59°52' E 010°40'3 6.3
2018-Jan-11 04:30N 59°55' E 010°44'3 6.3
2018-Jan-11 04:00N 59°52' E 010°40'0 0.1
2018-Jan-11 03:28N 59°52' E 010°39'0 0.0
2018-Jan-11 02:58N 59°52' E 010°39'0 0.0
2018-Jan-11 02:28N 59°52' E 010°39'0 0.0
2018-Jan-11 01:58N 59°52' E 010°39'0 0.0
2018-Jan-11 01:28N 59°52' E 010°39'0 0.0
2018-Jan-11 00:58N 59°52' E 010°39'0 0.0
2018-Jan-11 00:28N 59°52' E 010°39'0 0.0
2018-Jan-10 23:58N 59°52' E 010°39'0 0.0
2018-Jan-10 23:28N 59°52' E 010°39'3 6.7
2018-Jan-10 22:59N 59°55' E 010°44'3 6.6
2018-Jan-10 22:30N 59°52' E 010°39'3 6.2
2018-Jan-10 22:00N 59°55' E 010°44'3 6.5
2018-Jan-10 21:30N 59°52' E 010°39'3 5.8
2018-Jan-10 20:58N 59°55' E 010°44'3 7.1
2018-Jan-10 20:30N 59°52' E 010°39'3 6.0
2018-Jan-10 19:59N 59°55' E 010°44'3 6.8
2018-Jan-10 19:30N 59°52' E 010°39'3 6.1
2018-Jan-10 18:59N 59°55' E 010°44'3 6.6
2018-Jan-10 18:30N 59°52' E 010°39'3 6.3
2018-Jan-10 18:00N 59°55' E 010°44'3 6.4
2018-Jan-10 17:31N 59°52' E 010°39'3 5.8
2018-Jan-10 16:58N 59°55' E 010°44'3 7.0
2018-Jan-10 16:30N 59°52' E 010°39'3 6.0
2018-Jan-10 15:58N 59°55' E 010°44'2 3.7
2018-Jan-10 15:30N 59°54' E 010°41'1 1.4
2018-Jan-10 15:00N 59°54' E 010°42'1 1.2
2018-Jan-10 14:30N 59°54' E 010°41'1 1.6
2018-Jan-10 13:59N 59°54' E 010°43'1 1.7
2018-Jan-10 13:30N 59°55' E 010°44'3 6.3
2018-Jan-10 13:00N 59°52' E 010°39'3 6.1
2018-Jan-10 12:28N 59°55' E 010°44'3 6.9
2018-Jan-10 12:01N 59°52' E 010°39'3 6.1
2018-Jan-10 11:29N 59°55' E 010°44'0 0.0
2018-Jan-10 10:59N 59°55' E 010°44'0 0.0
2018-Jan-10 10:29N 59°55' E 010°44'0 0.0
2018-Jan-10 09:59N 59°55' E 010°44'0 0.0
2018-Jan-10 09:29N 59°55' E 010°44'3 6.6
2018-Jan-10 09:00N 59°52' E 010°39'3 6.1
2018-Jan-10 08:29N 59°55' E 010°44'3 6.6
2018-Jan-10 08:01N 59°52' E 010°39'3 6.1
2018-Jan-10 07:30N 59°55' E 010°44'3 6.6
2018-Jan-10 07:00N 59°52' E 010°39'3 6.0
2018-Jan-10 06:28N 59°55' E 010°44'3 6.8
2018-Jan-10 06:00N 59°52' E 010°39'3 6.1
2018-Jan-10 05:29N 59°55' E 010°44'3 6.5
2018-Jan-10 05:00N 59°52' E 010°39'3 6.6
2018-Jan-10 04:30N 59°55' E 010°44'3 6.4
2018-Jan-10 04:00N 59°52' E 010°39'0 0.0
2018-Jan-10 03:30N 59°52' E 010°39'0 0.0
2018-Jan-10 03:00N 59°52' E 010°39'0 0.0
2018-Jan-10 02:30N 59°52' E 010°39'0 0.0
2018-Jan-10 02:00N 59°52' E 010°39'0 0.0
2018-Jan-10 01:30N 59°52' E 010°39'0 0.0
2018-Jan-10 01:00N 59°52' E 010°39'0 0.0
2018-Jan-10 00:30N 59°52' E 010°39'0 0.0
2018-Jan-10 00:00N 59°52' E 010°39'0 0.0
2018-Jan-09 23:30N 59°52' E 010°39'3 6.3
2018-Jan-09 23:00N 59°55' E 010°44'3 6.4
2018-Jan-09 22:30N 59°52' E 010°40'3 6.3
2018-Jan-09 22:00N 59°55' E 010°44'3 6.3
2018-Jan-09 21:30N 59°52' E 010°40'3 6.2
2018-Jan-09 21:00N 59°55' E 010°44'3 6.4
2018-Jan-09 20:30N 59°52' E 010°39'3 6.2
2018-Jan-09 20:00N 59°55' E 010°44'3 6.3
2018-Jan-09 19:30N 59°52' E 010°39'3 6.5
2018-Jan-09 19:00N 59°55' E 010°44'3 6.3
2018-Jan-09 18:30N 59°52' E 010°39'3 6.3
2018-Jan-09 18:00N 59°55' E 010°44'3 6.3
2018-Jan-09 17:30N 59°52' E 010°39'3 6.5
2018-Jan-09 17:00N 59°55' E 010°44'3 6.4
2018-Jan-09 16:30N 59°52' E 010°39'3 6.3
2018-Jan-09 16:00N 59°55' E 010°44'2 3.6
2018-Jan-09 15:30N 59°53' E 010°41'1 2.1
2018-Jan-09 15:00N 59°54' E 010°43'1 1.8
2018-Jan-09 14:30N 59°54' E 010°41'1 1.8
2018-Jan-09 14:00N 59°54' E 010°43'1 1.4
2018-Jan-09 13:31N 59°55' E 010°44'3 5.8
2018-Jan-09 12:58N 59°52' E 010°39'3 6.7
2018-Jan-09 12:29N 59°55' E 010°44'3 6.7
2018-Jan-09 12:01N 59°52' E 010°39'3 6.3
2018-Jan-09 11:30N 59°55' E 010°44'0 0.0
2018-Jan-09 11:00N 59°55' E 010°44'0 0.0
2018-Jan-09 10:30N 59°55' E 010°44'0 0.0
2018-Jan-09 10:00N 59°55' E 010°44'0 0.0
2018-Jan-09 09:30N 59°55' E 010°44'3 6.3
2018-Jan-09 09:00N 59°52' E 010°39'3 6.2
2018-Jan-09 08:30N 59°55' E 010°44'3 6.5
2018-Jan-09 08:00N 59°52' E 010°39'3 6.4
2018-Jan-09 07:30N 59°55' E 010°44'3 6.4
2018-Jan-09 07:01N 59°52' E 010°39'3 5.9
2018-Jan-09 06:28N 59°55' E 010°44'3 6.5
2018-Jan-09 05:58N 59°52' E 010°39'3 6.6
2018-Jan-09 05:29N 59°55' E 010°44'3 6.5
2018-Jan-09 05:00N 59°52' E 010°39'3 6.1
2018-Jan-09 04:28N 59°55' E 010°44'3 6.4
2018-Jan-09 03:58N 59°52' E 010°39'0 0.0
2018-Jan-09 03:28N 59°52' E 010°39'  
Track history (hours):
 
Tides and Currents Weather Stations Pressure Air Temp Water Temp Dewpoint Dewpoint Depression Visibility Wind Speed Wind Dir Waves Ship Positions

Kongen

Last reported at 2018-Jan-19 03:00 UTC. Time now 2018-Jan-19 03:20 UTC.
Position N 59°52' E 010°39'.

Length 50 m; draft 3.2 m.

Type: Passenger vessel. MMSI: 258509000.

Date/timePositionNaut miles runAvg speedWind from/ knotsBaromVisibWave heightAir tempDewpointWater temp
2018-Jan-19 03:00N 59°52' E 010°39'0 0.0
2018-Jan-19 02:30N 59°52' E 010°39'0 0.0
2018-Jan-19 02:00N 59°52' E 010°39'0 0.0
2018-Jan-19 01:30N 59°52' E 010°39'0 0.0
2018-Jan-19 01:00N 59°52' E 010°39'0 0.0
2018-Jan-19 00:30N 59°52' E 010°39'0 0.0
2018-Jan-19 00:00N 59°52' E 010°39'0 0.0
2018-Jan-18 23:30N 59°52' E 010°39'3 6.4
2018-Jan-18 23:00N 59°55' E 010°44'3 6.4
2018-Jan-18 22:30N 59°52' E 010°39'3 6.4
2018-Jan-18 22:00N 59°55' E 010°44'3 6.4
2018-Jan-18 21:30N 59°52' E 010°39'3 6.2
2018-Jan-18 21:00N 59°55' E 010°44'3 6.6
2018-Jan-18 20:30N 59°52' E 010°39'3 6.3
2018-Jan-18 20:00N 59°55' E 010°44'3 6.5
2018-Jan-18 19:30N 59°52' E 010°39'3 6.4
2018-Jan-18 19:00N 59°55' E 010°44'3 6.4
2018-Jan-18 18:30N 59°52' E 010°39'3 6.2
2018-Jan-18 17:59N 59°55' E 010°44'3 6.6
2018-Jan-18 17:30N 59°52' E 010°39'3 6.4
2018-Jan-18 17:00N 59°55' E 010°44'3 6.4
2018-Jan-18 16:30N 59°52' E 010°39'3 6.4
2018-Jan-18 16:00N 59°55' E 010°44'2 3.4
2018-Jan-18 15:30N 59°54' E 010°41'1 1.4
2018-Jan-18 15:00N 59°54' E 010°42'1 1.3
2018-Jan-18 14:30N 59°53' E 010°41'1 1.3
2018-Jan-18 14:00N 59°54' E 010°42'1 2.1
2018-Jan-18 13:30N 59°55' E 010°44'3 6.4
2018-Jan-18 13:00N 59°52' E 010°39'3 6.2
2018-Jan-18 12:30N 59°55' E 010°44'3 6.5
2018-Jan-18 12:00N 59°52' E 010°39'3 6.3
2018-Jan-18 11:30N 59°55' E 010°44'0 0.0
2018-Jan-18 11:00N 59°55' E 010°44'1 1.2
2018-Jan-18 10:29N 59°54' E 010°43'0 0.0
2018-Jan-18 09:59N 59°54' E 010°43'0 0.7
2018-Jan-18 09:30N 59°54' E 010°43'3 5.5
2018-Jan-18 09:00N 59°52' E 010°39'3 6.4
2018-Jan-18 08:30N 59°55' E 010°44'3 6.4
2018-Jan-18 08:01N 59°52' E 010°39'3 6.2
2018-Jan-18 07:30N 59°55' E 010°44'3 6.2
2018-Jan-18 06:59N 59°52' E 010°39'3 6.6
2018-Jan-18 06:30N 59°55' E 010°44'3 6.5
2018-Jan-18 06:00N 59°52' E 010°39'3 5.9
2018-Jan-18 05:28N 59°55' E 010°44'3 6.9
2018-Jan-18 05:00N 59°52' E 010°39'3 6.2
2018-Jan-18 04:29N 59°55' E 010°44'3 6.6
2018-Jan-18 04:00N 59°52' E 010°39'0 0.0
2018-Jan-18 03:29N 59°52' E 010°39'0 0.0
2018-Jan-18 02:59N 59°52' E 010°39'0 0.0
2018-Jan-18 02:29N 59°52' E 010°39'0 0.0
2018-Jan-18 01:59N 59°52' E 010°39'0 0.0
2018-Jan-18 01:29N 59°52' E 010°39'0 0.0
2018-Jan-18 00:59N 59°52' E 010°39'0 0.0
2018-Jan-17 23:59N 59°52' E 010°39'0 0.0
2018-Jan-17 23:56N 59°52' E 010°39'  
2018-Jan-12 15:00N 59°54' E 010°42'1 1.1
2018-Jan-12 14:30N 59°54' E 010°41'0 0.9
2018-Jan-12 14:00N 59°54' E 010°42'1 2.3
2018-Jan-12 13:30N 59°55' E 010°44'3 6.4
2018-Jan-12 13:00N 59°52' E 010°40'3 6.2
2018-Jan-12 12:30N 59°55' E 010°44'3 6.5
2018-Jan-12 12:00N 59°52' E 010°39'3 6.2
2018-Jan-12 11:30N 59°55' E 010°44'0 0.0
2018-Jan-12 11:00N 59°55' E 010°44'0 0.0
2018-Jan-12 10:30N 59°55' E 010°44'0 0.0
2018-Jan-12 10:00N 59°55' E 010°44'0 0.0
2018-Jan-12 09:30N 59°55' E 010°44'3 6.5
2018-Jan-12 09:00N 59°52' E 010°39'3 6.2
2018-Jan-12 08:30N 59°55' E 010°44'3 6.5
2018-Jan-12 08:00N 59°52' E 010°39'3 6.2
2018-Jan-12 07:30N 59°55' E 010°44'3 6.6
2018-Jan-12 07:00N 59°52' E 010°39'3 6.3
2018-Jan-12 06:30N 59°55' E 010°44'3 6.4
2018-Jan-12 06:00N 59°52' E 010°39'3 6.2
2018-Jan-12 05:30N 59°55' E 010°44'3 6.4
2018-Jan-12 05:00N 59°52' E 010°39'3 6.3
2018-Jan-12 04:30N 59°55' E 010°44'3 6.4
2018-Jan-12 04:00N 59°52' E 010°39'0 0.0
2018-Jan-12 03:28N 59°52' E 010°39'0 0.0
2018-Jan-12 02:58N 59°52' E 010°39'0 0.0
2018-Jan-12 02:28N 59°52' E 010°39'0 0.0
2018-Jan-12 01:58N 59°52' E 010°39'0 0.0
2018-Jan-12 01:28N 59°52' E 010°39'0 0.0
2018-Jan-12 00:58N 59°52' E 010°39'0 0.0
2018-Jan-12 00:28N 59°52' E 010°39'0 0.0
2018-Jan-11 23:58N 59°52' E 010°39'0 0.0
2018-Jan-11 23:28N 59°52' E 010°39'3 6.8
2018-Jan-11 23:00N 59°55' E 010°44'3 6.4
2018-Jan-11 22:31N 59°52' E 010°39'3 6.3
2018-Jan-11 22:00N 59°55' E 010°44'3 6.4
2018-Jan-11 21:30N 59°52' E 010°39'3 6.4
2018-Jan-11 21:00N 59°55' E 010°44'3 6.3
2018-Jan-11 20:31N 59°52' E 010°39'3 6.1
2018-Jan-11 20:00N 59°55' E 010°44'3 6.6
2018-Jan-11 19:30N 59°52' E 010°39'3 6.2
2018-Jan-11 19:00N 59°55' E 010°44'3 6.5
2018-Jan-11 18:30N 59°52' E 010°39'3 6.2
2018-Jan-11 18:00N 59°55' E 010°44'3 6.5
2018-Jan-11 17:30N 59°52' E 010°39'3 6.3
2018-Jan-11 17:00N 59°55' E 010°44'3 6.5
2018-Jan-11 16:30N 59°52' E 010°39'3 6.2
2018-Jan-11 16:00N 59°55' E 010°44'2 3.5
2018-Jan-11 15:30N 59°53' E 010°41'1 1.3
2018-Jan-11 15:00N 59°54' E 010°42'0 0.9
2018-Jan-11 14:30N 59°54' E 010°42'1 1.2
2018-Jan-11 14:00N 59°54' E 010°42'1 1.9
2018-Jan-11 13:30N 59°55' E 010°44'3 6.5
2018-Jan-11 13:00N 59°52' E 010°40'3 6.1
2018-Jan-11 12:30N 59°55' E 010°44'3 6.4
2018-Jan-11 12:00N 59°52' E 010°40'3 6.1
2018-Jan-11 11:30N 59°55' E 010°44'0 0.0
2018-Jan-11 11:00N 59°55' E 010°44'1 1.1
2018-Jan-11 10:30N 59°54' E 010°43'0 0.5
2018-Jan-11 10:00N 59°54' E 010°43'0 0.4
2018-Jan-11 09:30N 59°54' E 010°43'3 5.1
2018-Jan-11 09:00N 59°52' E 010°39'3 6.2
2018-Jan-11 08:30N 59°55' E 010°44'3 6.4
2018-Jan-11 08:00N 59°52' E 010°39'3 6.2
2018-Jan-11 07:30N 59°55' E 010°44'3 6.6
2018-Jan-11 07:00N 59°52' E 010°39'3 6.3
2018-Jan-11 06:30N 59°55' E 010°44'3 6.3
2018-Jan-11 06:00N 59°52' E 010°40'3 6.3
2018-Jan-11 05:30N 59°55' E 010°44'3 6.3
2018-Jan-11 05:00N 59°52' E 010°40'3 6.3
2018-Jan-11 04:30N 59°55' E 010°44'3 6.3
2018-Jan-11 04:00N 59°52' E 010°40'0 0.1
2018-Jan-11 03:28N 59°52' E 010°39'0 0.0
2018-Jan-11 02:58N 59°52' E 010°39'0 0.0
2018-Jan-11 02:28N 59°52' E 010°39'0 0.0
2018-Jan-11 01:58N 59°52' E 010°39'0 0.0
2018-Jan-11 01:28N 59°52' E 010°39'0 0.0
2018-Jan-11 00:58N 59°52' E 010°39'0 0.0
2018-Jan-11 00:28N 59°52' E 010°39'0 0.0
2018-Jan-10 23:58N 59°52' E 010°39'0 0.0
2018-Jan-10 23:28N 59°52' E 010°39'3 6.7
2018-Jan-10 22:59N 59°55' E 010°44'3 6.6
2018-Jan-10 22:30N 59°52' E 010°39'3 6.2
2018-Jan-10 22:00N 59°55' E 010°44'3 6.5
2018-Jan-10 21:30N 59°52' E 010°39'3 5.8
2018-Jan-10 20:58N 59°55' E 010°44'3 7.1
2018-Jan-10 20:30N 59°52' E 010°39'3 6.0
2018-Jan-10 19:59N 59°55' E 010°44'3 6.8
2018-Jan-10 19:30N 59°52' E 010°39'3 6.1
2018-Jan-10 18:59N 59°55' E 010°44'3 6.6
2018-Jan-10 18:30N 59°52' E 010°39'3 6.3
2018-Jan-10 18:00N 59°55' E 010°44'3 6.4
2018-Jan-10 17:31N 59°52' E 010°39'3 5.8
2018-Jan-10 16:58N 59°55' E 010°44'3 7.0
2018-Jan-10 16:30N 59°52' E 010°39'3 6.0
2018-Jan-10 15:58N 59°55' E 010°44'2 3.7
2018-Jan-10 15:30N 59°54' E 010°41'1 1.4
2018-Jan-10 15:00N 59°54' E 010°42'1 1.2
2018-Jan-10 14:30N 59°54' E 010°41'1 1.6
2018-Jan-10 13:59N 59°54' E 010°43'1 1.7
2018-Jan-10 13:30N 59°55' E 010°44'3 6.3
2018-Jan-10 13:00N 59°52' E 010°39'3 6.1
2018-Jan-10 12:28N 59°55' E 010°44'3 6.9
2018-Jan-10 12:01N 59°52' E 010°39'3 6.1
2018-Jan-10 11:29N 59°55' E 010°44'0 0.0
2018-Jan-10 10:59N 59°55' E 010°44'0 0.0
2018-Jan-10 10:29N 59°55' E 010°44'0 0.0
2018-Jan-10 09:59N 59°55' E 010°44'0 0.0
2018-Jan-10 09:29N 59°55' E 010°44'3 6.6
2018-Jan-10 09:00N 59°52' E 010°39'3 6.1
2018-Jan-10 08:29N 59°55' E 010°44'3 6.6
2018-Jan-10 08:01N 59°52' E 010°39'3 6.1
2018-Jan-10 07:30N 59°55' E 010°44'3 6.6
2018-Jan-10 07:00N 59°52' E 010°39'3 6.0
2018-Jan-10 06:28N 59°55' E 010°44'3 6.8
2018-Jan-10 06:00N 59°52' E 010°39'3 6.1
2018-Jan-10 05:29N 59°55' E 010°44'3 6.5
2018-Jan-10 05:00N 59°52' E 010°39'3 6.6
2018-Jan-10 04:30N 59°55' E 010°44'3 6.4
2018-Jan-10 04:00N 59°52' E 010°39'0 0.0
2018-Jan-10 03:30N 59°52' E 010°39'0 0.0
2018-Jan-10 03:00N 59°52' E 010°39'0 0.0
2018-Jan-10 02:30N 59°52' E 010°39'0 0.0
2018-Jan-10 02:00N 59°52' E 010°39'0 0.0
2018-Jan-10 01:30N 59°52' E 010°39'0 0.0
2018-Jan-10 01:00N 59°52' E 010°39'0 0.0
2018-Jan-10 00:30N 59°52' E 010°39'0 0.0
2018-Jan-10 00:00N 59°52' E 010°39'0 0.0
2018-Jan-09 23:30N 59°52' E 010°39'3 6.3
2018-Jan-09 23:00N 59°55' E 010°44'3 6.4
2018-Jan-09 22:30N 59°52' E 010°40'3 6.3
2018-Jan-09 22:00N 59°55' E 010°44'3 6.3
2018-Jan-09 21:30N 59°52' E 010°40'3 6.2
2018-Jan-09 21:00N 59°55' E 010°44'3 6.4
2018-Jan-09 20:30N 59°52' E 010°39'3 6.2
2018-Jan-09 20:00N 59°55' E 010°44'3 6.3
2018-Jan-09 19:30N 59°52' E 010°39'3 6.5
2018-Jan-09 19:00N 59°55' E 010°44'3 6.3
2018-Jan-09 18:30N 59°52' E 010°39'3 6.3
2018-Jan-09 18:00N 59°55' E 010°44'3 6.3
2018-Jan-09 17:30N 59°52' E 010°39'3 6.5
2018-Jan-09 17:00N 59°55' E 010°44'3 6.4
2018-Jan-09 16:30N 59°52' E 010°39'3 6.3
2018-Jan-09 16:00N 59°55' E 010°44'2 3.6
2018-Jan-09 15:30N 59°53' E 010°41'1 2.1
2018-Jan-09 15:00N 59°54' E 010°43'1 1.8
2018-Jan-09 14:30N 59°54' E 010°41'1 1.8
2018-Jan-09 14:00N 59°54' E 010°43'1 1.4
2018-Jan-09 13:31N 59°55' E 010°44'3 5.8
2018-Jan-09 12:58N 59°52' E 010°39'3 6.7
2018-Jan-09 12:29N 59°55' E 010°44'3 6.7
2018-Jan-09 12:01N 59°52' E 010°39'3 6.3
2018-Jan-09 11:30N 59°55' E 010°44'0 0.0
2018-Jan-09 11:00N 59°55' E 010°44'0 0.0
2018-Jan-09 10:30N 59°55' E 010°44'0 0.0
2018-Jan-09 10:00N 59°55' E 010°44'0 0.0
2018-Jan-09 09:30N 59°55' E 010°44'3 6.3
2018-Jan-09 09:00N 59°52' E 010°39'3 6.2
2018-Jan-09 08:30N 59°55' E 010°44'3 6.5
2018-Jan-09 08:00N 59°52' E 010°39'3 6.4
2018-Jan-09 07:30N 59°55' E 010°44'3 6.4
2018-Jan-09 07:01N 59°52' E 010°39'3 5.9
2018-Jan-09 06:28N 59°55' E 010°44'3 6.5
2018-Jan-09 05:58N 59°52' E 010°39'3 6.6
2018-Jan-09 05:29N 59°55' E 010°44'3 6.5
2018-Jan-09 05:00N 59°52' E 010°39'3 6.1
2018-Jan-09 04:28N 59°55' E 010°44'3 6.4
2018-Jan-09 03:58N 59°52' E 010°39'0 0.0
2018-Jan-09 03:28N 59°52' E 010°39'  

Dump ship's entire track history